createdAt,value
2019-03-11T00:00:00.665Z,1.10
2019-03-11T00:00:47.087Z,1.50
2019-03-11T00:01:28.751Z,1.40
2019-03-11T00:02:07.469Z,1.42
2019-03-11T00:02:45.045Z,2.08
2019-03-11T00:03:23.113Z,2.15
2019-03-11T00:04:00.601Z,1.95
2019-03-11T00:04:38.622Z,2.20
2019-03-11T00:05:15.701Z,1.67
2019-03-11T00:05:53.097Z,1.15
2019-03-11T00:06:30.127Z,1.25
2019-03-11T00:07:07.635Z,1.60
2019-03-11T00:07:45.285Z,1.80
2019-03-11T00:08:23.057Z,1.47
2019-03-11T00:09:00.837Z,1.45
2019-03-11T00:09:37.927Z,1.27
2019-03-11T00:10:15.807Z,1.72
2019-03-11T00:10:53.662Z,1.17
2019-03-11T00:11:31.057Z,1.40
2019-03-11T00:12:08.546Z,2.17
2019-03-11T00:12:46.257Z,2.25
2019-03-11T00:13:24.367Z,1.35
2019-03-11T00:14:02.043Z,2.20
2019-03-11T00:14:39.489Z,2.30
2019-03-11T00:15:16.753Z,1.37
2019-03-11T00:15:54.787Z,2.00
2019-03-11T00:16:32.231Z,1.60
2019-03-11T00:17:09.628Z,1.45
2019-03-11T00:17:47.089Z,1.80
2019-03-11T00:18:24.799Z,2.05
2019-03-11T00:19:01.556Z,1.57
2019-03-11T00:19:38.931Z,1.85
2019-03-11T00:20:16.861Z,1.32
2019-03-11T00:20:54.486Z,1.77
2019-03-11T00:21:32.367Z,1.60
2019-03-11T00:22:09.915Z,1.85
2019-03-11T00:22:47.644Z,1.20
2019-03-11T00:23:25.393Z,1.25
2019-03-11T00:24:03.331Z,1.37
2019-03-11T00:24:40.391Z,1.57
2019-03-11T00:25:18.133Z,1.32
2019-03-11T00:25:55.651Z,1.72
2019-03-11T00:26:33.023Z,1.22
2019-03-11T00:27:10.503Z,1.20
2019-03-11T00:27:48.437Z,1.60
2019-03-11T00:28:26.176Z,1.60
2019-03-11T00:29:03.963Z,1.50
2019-03-11T00:29:41.433Z,1.40
2019-03-11T00:30:19.141Z,1.80
2019-03-11T00:30:57.107Z,1.22
2019-03-11T00:31:35.099Z,1.50
2019-03-11T00:32:12.296Z,1.67
2019-03-11T00:32:51.527Z,1.92
2019-03-11T00:33:29.275Z,1.37
2019-03-11T00:34:07.293Z,2.05
2019-03-11T00:34:45.065Z,1.30
2019-03-11T00:35:23.046Z,1.80
2019-03-11T00:36:00.421Z,1.70
2019-03-11T00:36:38.217Z,1.42
2019-03-11T00:37:15.848Z,1.75
2019-03-11T00:37:53.583Z,1.35
2019-03-11T00:38:31.157Z,1.55
2019-03-11T00:39:08.685Z,1.15
2019-03-11T00:39:46.029Z,1.75
2019-03-11T00:40:23.977Z,1.35
2019-03-11T00:41:01.729Z,1.70
2019-03-11T00:41:39.398Z,1.22
2019-03-11T00:42:16.763Z,1.80
2019-03-11T00:42:55.409Z,1.95
2019-03-11T00:43:32.877Z,1.40
2019-03-11T00:44:10.648Z,1.35
2019-03-11T00:44:47.729Z,1.80
2019-03-11T00:45:25.210Z,1.30
2019-03-11T00:46:02.552Z,1.60
2019-03-11T00:46:40.119Z,2.47
2019-03-11T00:47:18.074Z,1.77
2019-03-11T00:48:02.070Z,1.40
2019-03-11T00:48:35.225Z,2.02
2019-03-11T00:49:32.050Z,1.60
2019-03-11T00:50:10.397Z,2.00
2019-03-11T00:50:47.929Z,2.50
2019-03-11T00:51:25.948Z,1.50
2019-03-11T00:52:03.356Z,1.62
2019-03-11T00:52:41.198Z,1.40
2019-03-11T00:53:19.233Z,1.37
2019-03-11T00:53:56.677Z,1.10
2019-03-11T00:54:34.353Z,1.75
2019-03-11T00:55:12.373Z,1.42
2019-03-11T00:55:50.037Z,1.30
2019-03-11T00:56:28.003Z,1.50
2019-03-11T00:57:05.712Z,1.85
2019-03-11T00:57:43.910Z,1.50
2019-03-11T00:58:21.669Z,2.22
2019-03-11T00:58:59.363Z,1.30
2019-03-11T00:59:37.316Z,1.82
2019-03-11T01:00:20.827Z,1.50
2019-03-11T01:00:58.235Z,1.65
2019-03-11T01:01:35.831Z,1.75
2019-03-11T01:02:13.297Z,1.40
2019-03-11T01:02:51.007Z,2.17
2019-03-11T01:03:28.535Z,1.57
2019-03-11T01:04:05.989Z,1.67
2019-03-11T01:04:43.592Z,1.80
2019-03-11T01:05:21.234Z,1.52
2019-03-11T01:05:59.159Z,1.57
2019-03-11T01:06:37.211Z,1.87
2019-03-11T01:07:15.001Z,1.32
2019-03-11T01:07:52.751Z,1.30
2019-03-11T01:08:30.902Z,1.40
2019-03-11T01:09:08.937Z,1.47
2019-03-11T01:09:46.706Z,1.62
2019-03-11T01:10:24.411Z,1.57
2019-03-11T01:11:01.883Z,1.50
2019-03-11T01:11:39.485Z,1.62
2019-03-11T01:12:16.944Z,1.82
2019-03-11T01:12:55.071Z,1.40
2019-03-11T01:13:32.529Z,1.50
2019-03-11T01:14:10.377Z,1.50
2019-03-11T01:14:48.123Z,1.55
2019-03-11T01:15:25.583Z,1.70
2019-03-11T01:16:03.048Z,1.20
2019-03-11T01:16:40.529Z,1.72
2019-03-11T01:17:18.003Z,1.15
2019-03-11T01:17:55.793Z,1.80
2019-03-11T01:18:33.377Z,1.70
2019-03-11T01:19:10.439Z,1.40
2019-03-11T01:19:48.298Z,1.62
2019-03-11T01:20:25.637Z,2.30
2019-03-11T01:21:03.347Z,1.70
2019-03-11T01:21:41.415Z,1.55
2019-03-11T01:22:18.957Z,1.25
2019-03-11T01:22:56.450Z,1.42
2019-03-11T01:23:33.928Z,1.42
2019-03-11T01:24:11.095Z,1.50
2019-03-11T01:24:48.833Z,1.45
2019-03-11T01:25:26.665Z,1.37
2019-03-11T01:26:04.256Z,1.32
2019-03-11T01:26:41.673Z,1.60
2019-03-11T01:27:19.403Z,1.55
2019-03-11T01:27:56.886Z,1.67
2019-03-11T01:28:34.674Z,1.70
2019-03-11T01:29:12.148Z,1.37
2019-03-11T01:29:49.931Z,1.70
2019-03-11T01:30:27.856Z,1.40
2019-03-11T01:31:05.357Z,1.82
2019-03-11T01:31:43.442Z,1.90
2019-03-11T01:32:21.088Z,1.40
2019-03-11T01:32:59.111Z,1.45
2019-03-11T01:33:37.033Z,1.67
2019-03-11T01:34:16.022Z,2.15
2019-03-11T01:34:53.927Z,1.67
2019-03-11T01:35:31.353Z,1.57
2019-03-11T01:36:09.380Z,1.25
2019-03-11T01:36:46.731Z,1.77
2019-03-11T01:37:24.438Z,1.02
2019-03-11T01:38:01.871Z,2.00
2019-03-11T01:38:39.627Z,1.72
2019-03-11T01:39:17.533Z,1.70
2019-03-11T01:39:55.335Z,1.70
2019-03-11T01:40:32.649Z,1.75
2019-03-11T01:41:10.076Z,1.85
2019-03-11T01:41:47.711Z,1.30
2019-03-11T01:42:25.426Z,1.40
2019-03-11T01:43:03.204Z,1.25
2019-03-11T01:43:41.173Z,1.70
2019-03-11T01:44:18.865Z,1.12
2019-03-11T01:44:56.825Z,1.70
2019-03-11T01:45:34.448Z,1.85
2019-03-11T01:46:12.394Z,1.40
2019-03-11T01:46:50.028Z,1.67
2019-03-11T01:47:27.966Z,1.35
2019-03-11T01:48:06.003Z,1.75
2019-03-11T01:48:43.348Z,1.50
2019-03-11T01:49:23.787Z,1.32
2019-03-11T01:50:00.577Z,1.17
2019-03-11T01:50:38.267Z,1.65
2019-03-11T01:51:16.231Z,1.60
2019-03-11T01:51:53.875Z,1.55
2019-03-11T01:52:31.452Z,1.25
2019-03-11T01:53:09.298Z,1.45
2019-03-11T01:53:47.278Z,1.65
2019-03-11T01:54:24.704Z,1.20
2019-03-11T01:55:02.350Z,1.45
2019-03-11T01:55:39.489Z,1.50
2019-03-11T01:56:17.499Z,1.50
2019-03-11T01:56:55.182Z,2.50
2019-03-11T01:57:33.036Z,1.20
2019-03-11T01:58:10.550Z,1.52
2019-03-11T01:58:48.191Z,1.95
2019-03-11T01:59:25.816Z,1.17
2019-03-11T02:00:03.189Z,1.82
2019-03-11T02:00:40.409Z,1.80
2019-03-11T02:01:17.835Z,1.55
2019-03-11T02:02:14.836Z,1.37
2019-03-11T02:02:52.623Z,1.60
2019-03-11T02:03:30.302Z,1.42
2019-03-11T02:04:07.709Z,1.40
2019-03-11T02:04:45.202Z,1.20
2019-03-11T02:05:22.714Z,1.85
2019-03-11T02:06:00.448Z,1.32
2019-03-11T02:06:38.100Z,1.92
2019-03-11T02:07:15.827Z,1.50
2019-03-11T02:07:53.342Z,1.47
2019-03-11T02:08:31.281Z,1.55
2019-03-11T02:09:11.828Z,1.37
2019-03-11T02:09:49.822Z,1.42
2019-03-11T02:10:27.210Z,1.87
2019-03-11T02:11:05.522Z,1.65
2019-03-11T02:11:42.340Z,1.50
2019-03-11T02:12:19.713Z,1.70
2019-03-11T02:12:57.219Z,1.20
2019-03-11T02:13:35.093Z,1.52
2019-03-11T02:14:12.891Z,1.70
2019-03-11T02:14:50.345Z,1.30
2019-03-11T02:15:28.381Z,1.37
2019-03-11T02:16:06.430Z,1.30
2019-03-11T02:16:43.907Z,1.50
2019-03-11T02:17:21.728Z,1.35
2019-03-11T02:17:59.412Z,2.12
2019-03-11T02:18:37.153Z,1.20
2019-03-11T02:19:13.870Z,1.30
2019-03-11T02:19:53.555Z,1.35
2019-03-11T02:20:31.340Z,1.20
2019-03-11T02:21:09.249Z,1.95
2019-03-11T02:21:47.118Z,1.50
2019-03-11T02:22:24.495Z,1.05
2019-03-11T02:23:01.814Z,1.70
2019-03-11T02:23:39.484Z,1.32
2019-03-11T02:24:17.164Z,1.37
2019-03-11T02:24:54.956Z,1.37
2019-03-11T02:25:32.015Z,1.20
2019-03-11T02:26:10.110Z,2.00
2019-03-11T02:26:47.791Z,1.62
2019-03-11T02:27:25.536Z,1.20
2019-03-11T02:28:03.562Z,1.62
2019-03-11T02:28:41.332Z,1.60
2019-03-11T02:29:18.946Z,1.52
2019-03-11T02:29:56.905Z,1.25
2019-03-11T02:30:34.668Z,2.35
2019-03-11T02:31:12.628Z,1.72
2019-03-11T02:31:50.361Z,1.50
2019-03-11T02:32:28.789Z,1.47
2019-03-11T02:33:06.655Z,1.30
2019-03-11T02:33:44.378Z,1.20
2019-03-11T02:34:22.355Z,1.35
2019-03-11T02:35:00.005Z,1.10
2019-03-11T02:35:37.478Z,1.45
2019-03-11T02:36:14.866Z,1.67
2019-03-11T02:36:52.527Z,1.50
2019-03-11T02:37:30.264Z,1.80
2019-03-11T02:38:08.297Z,1.30
2019-03-11T02:38:45.497Z,1.52
2019-03-11T02:39:23.192Z,1.22
2019-03-11T02:40:00.975Z,1.60
2019-03-11T02:40:38.744Z,1.77
2019-03-11T02:41:15.862Z,1.20
2019-03-11T02:41:53.006Z,1.40
2019-03-11T02:42:30.996Z,1.90
2019-03-11T02:43:08.647Z,1.40
2019-03-11T02:43:46.139Z,1.50
2019-03-11T02:44:23.549Z,1.20
2019-03-11T02:45:01.595Z,1.40
2019-03-11T02:45:39.501Z,1.25
2019-03-11T02:46:17.619Z,1.72
2019-03-11T02:46:55.375Z,1.62
2019-03-11T02:47:33.385Z,1.40
2019-03-11T02:48:10.888Z,1.80
2019-03-11T02:48:48.580Z,1.40
2019-03-11T02:49:26.046Z,1.70
2019-03-11T02:50:03.525Z,1.37
2019-03-11T02:50:41.163Z,1.62
2019-03-11T02:51:18.216Z,1.40
2019-03-11T02:51:55.659Z,1.82
2019-03-11T02:52:32.989Z,1.70
2019-03-11T02:53:11.254Z,1.27
2019-03-11T02:53:49.069Z,2.05
2019-03-11T02:54:26.796Z,1.72
2019-03-11T02:55:04.370Z,1.50
2019-03-11T02:55:41.715Z,1.52
2019-03-11T02:56:19.429Z,1.55
2019-03-11T02:56:57.186Z,2.12
2019-03-11T02:57:34.908Z,1.65
2019-03-11T02:58:12.572Z,1.40
2019-03-11T02:58:50.256Z,1.60
2019-03-11T02:59:27.893Z,1.30
2019-03-11T03:00:08.339Z,1.40
2019-03-11T03:00:46.469Z,1.70
2019-03-11T03:01:41.437Z,2.08
2019-03-11T03:02:37.151Z,1.60
2019-03-11T03:03:16.781Z,1.40
2019-03-11T03:04:01.633Z,1.55
2019-03-11T03:04:42.908Z,1.80
2019-03-11T03:05:23.148Z,1.50
2019-03-11T03:06:04.744Z,1.60
2019-03-11T03:06:42.196Z,1.82
2019-03-11T03:07:19.345Z,1.98
2019-03-11T03:07:57.190Z,1.70
2019-03-11T03:08:34.842Z,1.62
2019-03-11T03:09:15.194Z,1.45
2019-03-11T03:09:53.296Z,2.00
2019-03-11T03:10:30.949Z,1.95
2019-03-11T03:11:08.647Z,1.72
2019-03-11T03:11:46.487Z,1.52
2019-03-11T03:12:23.933Z,1.52
2019-03-11T03:13:01.901Z,1.42
2019-03-11T03:13:40.032Z,1.45
2019-03-11T03:14:18.131Z,1.90
2019-03-11T03:14:55.496Z,1.70
2019-03-11T03:15:32.945Z,1.60
2019-03-11T03:16:10.517Z,2.02
2019-03-11T03:16:48.087Z,1.55
2019-03-11T03:17:25.106Z,1.25
2019-03-11T03:18:03.207Z,2.20
2019-03-11T03:18:41.141Z,1.37
2019-03-11T03:19:18.760Z,2.37
2019-03-11T03:19:56.133Z,1.82
2019-03-11T03:20:33.586Z,1.40
2019-03-11T03:21:11.583Z,1.55
2019-03-11T03:21:49.019Z,1.45
2019-03-11T03:22:26.981Z,2.55
2019-03-11T03:23:05.160Z,1.65
2019-03-11T03:23:42.699Z,1.87
2019-03-11T03:24:20.732Z,1.60
2019-03-11T03:24:58.810Z,1.60
2019-03-11T03:25:36.190Z,1.75
2019-03-11T03:26:13.974Z,1.80
2019-03-11T03:26:52.001Z,1.70
2019-03-11T03:27:29.996Z,1.62
2019-03-11T03:28:07.563Z,1.40
2019-03-11T03:28:44.930Z,1.72
2019-03-11T03:29:22.971Z,1.92
2019-03-11T03:30:00.649Z,1.70
2019-03-11T03:30:38.553Z,2.10
2019-03-11T03:31:16.181Z,2.15
2019-03-11T03:31:53.653Z,1.67
2019-03-11T03:32:31.118Z,2.27
2019-03-11T03:33:08.601Z,1.57
2019-03-11T03:33:46.623Z,1.40
2019-03-11T03:34:29.595Z,1.95
2019-03-11T03:35:07.011Z,1.72
2019-03-11T03:35:44.874Z,1.55
2019-03-11T03:36:22.265Z,1.90
2019-03-11T03:36:59.927Z,1.85
2019-03-11T03:37:37.551Z,2.20
2019-03-11T03:38:28.816Z,1.60
2019-03-11T03:38:54.223Z,1.85
2019-03-11T03:39:31.894Z,1.90
2019-03-11T03:40:10.256Z,1.80
2019-03-11T03:40:47.861Z,1.50
2019-03-11T03:41:24.961Z,2.10
2019-03-11T03:42:03.245Z,1.65
2019-03-11T03:42:40.527Z,1.80
2019-03-11T03:43:18.109Z,2.20
2019-03-11T03:43:55.358Z,2.25
2019-03-11T03:44:33.380Z,1.85
2019-03-11T03:45:26.947Z,2.10
2019-03-11T03:46:17.854Z,1.80
2019-03-11T03:46:43.787Z,2.20
2019-03-11T03:47:21.183Z,1.80
2019-03-11T03:47:59.413Z,2.10
2019-03-11T03:48:36.913Z,1.95
2019-03-11T03:49:14.541Z,1.98
2019-03-11T03:49:52.255Z,2.02
2019-03-11T03:50:31.558Z,1.70
2019-03-11T03:51:09.023Z,2.08
2019-03-11T03:51:46.405Z,2.20
2019-03-11T03:52:23.816Z,1.80
2019-03-11T03:53:01.901Z,1.42
2019-03-11T03:53:39.344Z,2.08
2019-03-11T03:54:17.237Z,2.05
2019-03-11T03:54:54.806Z,1.75
2019-03-11T03:55:32.716Z,2.00
2019-03-11T03:56:10.520Z,2.40
2019-03-11T03:56:48.210Z,2.33
2019-03-11T03:57:25.687Z,1.62
2019-03-11T03:58:03.448Z,2.15
2019-03-11T03:58:41.268Z,2.30
2019-03-11T03:59:18.627Z,2.55
2019-03-11T03:59:56.329Z,2.00
2019-03-11T04:00:34.105Z,2.42
2019-03-11T04:01:11.889Z,2.42
2019-03-11T04:01:49.347Z,2.50
2019-03-11T04:02:27.355Z,2.75
2019-03-11T04:03:05.417Z,2.52
2019-03-11T04:03:43.027Z,2.20
2019-03-11T04:04:20.702Z,2.25
2019-03-11T04:04:58.691Z,2.77
2019-03-11T04:05:36.827Z,2.08
2019-03-11T04:06:14.654Z,2.40
2019-03-11T04:06:52.431Z,2.40
2019-03-11T04:07:30.160Z,2.20
2019-03-11T04:08:07.295Z,2.83
2019-03-11T04:08:45.357Z,2.20
2019-03-11T04:09:23.407Z,1.62
2019-03-11T04:10:01.164Z,1.82
2019-03-11T04:10:39.209Z,2.05
2019-03-11T04:11:16.645Z,2.05
2019-03-11T04:11:54.484Z,2.52
2019-03-11T04:12:31.603Z,2.20
2019-03-11T04:13:09.924Z,2.55
2019-03-11T04:13:47.700Z,2.27
2019-03-11T04:14:25.103Z,2.10
2019-03-11T04:15:02.585Z,2.45
2019-03-11T04:15:40.557Z,1.90
2019-03-11T04:16:18.762Z,2.05
2019-03-11T04:16:56.512Z,2.00
2019-03-11T04:17:33.916Z,2.22
2019-03-11T04:18:11.819Z,1.90
2019-03-11T04:18:51.248Z,2.45
2019-03-11T04:19:29.656Z,2.40
2019-03-11T04:20:11.678Z,2.00
2019-03-11T04:20:49.549Z,2.67
2019-03-11T04:21:27.716Z,2.47
2019-03-11T04:22:05.592Z,2.20
2019-03-11T04:22:43.391Z,2.30
2019-03-11T04:23:21.183Z,2.15
2019-03-11T04:23:59.667Z,2.35
2019-03-11T04:24:37.479Z,2.40
2019-03-11T04:25:15.101Z,2.00
2019-03-11T04:25:53.323Z,2.72
2019-03-11T04:26:32.040Z,2.60
2019-03-11T04:27:10.610Z,2.50
2019-03-11T04:27:48.403Z,2.62
2019-03-11T04:28:26.232Z,3.08
2019-03-11T04:29:04.288Z,2.30
2019-03-11T04:29:42.161Z,2.75
2019-03-11T04:30:23.653Z,2.60
2019-03-11T04:31:01.642Z,2.30
2019-03-11T04:31:39.616Z,2.52
2019-03-11T04:32:17.081Z,2.30
2019-03-11T04:32:55.101Z,2.83
2019-03-11T04:33:32.681Z,1.90
2019-03-11T04:34:10.757Z,3.33
2019-03-11T04:34:48.236Z,2.58
2019-03-11T04:35:25.427Z,3.00
2019-03-11T04:36:03.119Z,2.17
2019-03-11T04:36:41.154Z,2.55
2019-03-11T04:37:18.787Z,2.50
2019-03-11T04:37:56.191Z,2.75
2019-03-11T04:38:33.640Z,1.87
2019-03-11T04:39:11.109Z,2.60
2019-03-11T04:39:48.903Z,2.58
2019-03-11T04:40:26.320Z,2.90
2019-03-11T04:41:04.113Z,2.58
2019-03-11T04:41:41.450Z,2.85
2019-03-11T04:42:19.039Z,2.60
2019-03-11T04:42:56.420Z,2.92
2019-03-11T04:43:33.526Z,2.33
2019-03-11T04:44:10.907Z,2.05
2019-03-11T04:44:48.647Z,2.30
2019-03-11T04:45:26.589Z,2.83
2019-03-11T04:46:04.905Z,3.60
2019-03-11T04:46:42.392Z,2.70
2019-03-11T04:47:20.416Z,2.80
2019-03-11T04:47:58.086Z,2.90
2019-03-11T04:48:35.651Z,2.20
2019-03-11T04:49:13.035Z,2.70
2019-03-11T04:49:50.510Z,2.25
2019-03-11T04:50:28.204Z,2.60
2019-03-11T04:51:06.275Z,2.60
2019-03-11T04:51:43.687Z,2.60
2019-03-11T04:52:21.347Z,2.40
2019-03-11T04:52:58.392Z,2.72
2019-03-11T04:53:35.796Z,2.33
2019-03-11T04:54:14.072Z,2.42
2019-03-11T04:54:51.672Z,2.40
2019-03-11T04:55:29.265Z,2.80
2019-03-11T04:56:07.040Z,2.83
2019-03-11T04:56:44.122Z,3.20
2019-03-11T04:57:23.426Z,2.75
2019-03-11T04:58:00.874Z,3.27
2019-03-11T04:58:37.979Z,2.90
2019-03-11T04:59:15.744Z,2.80
2019-03-11T04:59:53.431Z,3.75
2019-03-11T05:00:31.265Z,3.10
2019-03-11T05:01:08.132Z,2.72
2019-03-11T05:01:46.196Z,3.92
2019-03-11T05:02:23.846Z,2.62
2019-03-11T05:03:01.699Z,2.95
2019-03-11T05:03:39.669Z,2.62
2019-03-11T05:04:17.773Z,2.67
2019-03-11T05:04:55.137Z,3.62
2019-03-11T05:05:32.819Z,3.25
2019-03-11T05:06:10.790Z,2.40
2019-03-11T05:06:48.480Z,3.15
2019-03-11T05:07:26.081Z,2.70
2019-03-11T05:08:04.384Z,3.15
2019-03-11T05:08:41.751Z,3.08
2019-03-11T05:09:27.227Z,3.00
2019-03-11T05:10:05.353Z,2.80
2019-03-11T05:10:42.797Z,3.00
2019-03-11T05:11:20.481Z,2.65
2019-03-11T05:11:58.150Z,2.58
2019-03-11T05:12:36.168Z,3.27
2019-03-11T05:13:33.016Z,2.90
2019-03-11T05:14:10.523Z,3.20
2019-03-11T05:14:48.553Z,3.85
2019-03-11T05:15:26.423Z,3.15
2019-03-11T05:16:04.298Z,3.62
2019-03-11T05:16:42.509Z,3.02
2019-03-11T05:17:20.506Z,3.37
2019-03-11T05:17:58.587Z,3.27
2019-03-11T05:18:36.605Z,3.50
2019-03-11T05:19:14.347Z,3.90
2019-03-11T05:19:52.387Z,3.60
2019-03-11T05:20:29.759Z,4.00
2019-03-11T05:21:07.747Z,4.65
2019-03-11T05:21:45.816Z,4.35
2019-03-11T05:22:23.817Z,3.45
2019-03-11T05:23:01.489Z,3.55
2019-03-11T05:23:38.868Z,4.33
2019-03-11T05:24:16.654Z,3.83
2019-03-11T05:24:54.564Z,4.50
2019-03-11T05:25:32.657Z,4.62
2019-03-11T05:26:10.725Z,4.20
2019-03-11T05:26:48.389Z,4.30
2019-03-11T05:27:26.500Z,4.08
2019-03-11T05:28:03.764Z,4.00
2019-03-11T05:28:41.873Z,4.40
2019-03-11T05:29:19.861Z,4.03
2019-03-11T05:29:57.640Z,4.65
2019-03-11T05:30:35.473Z,4.50
2019-03-11T05:31:13.309Z,5.12
2019-03-11T05:31:50.997Z,4.60
2019-03-11T05:32:29.238Z,4.40
2019-03-11T05:33:06.348Z,4.92
2019-03-11T05:33:43.741Z,4.55
2019-03-11T05:34:21.567Z,3.90
2019-03-11T05:34:58.624Z,4.10
2019-03-11T05:35:36.281Z,4.45
2019-03-11T05:36:14.065Z,4.70
2019-03-11T05:36:51.337Z,4.97
2019-03-11T05:37:28.637Z,4.58
2019-03-11T05:38:06.406Z,4.40
2019-03-11T05:38:44.297Z,4.58
2019-03-11T05:39:21.594Z,4.30
2019-03-11T05:39:59.638Z,5.22
2019-03-11T05:40:37.365Z,4.87
2019-03-11T05:41:14.460Z,5.03
2019-03-11T05:41:52.629Z,4.62
2019-03-11T05:42:30.766Z,4.65
2019-03-11T05:43:08.459Z,5.80
2019-03-11T05:43:46.259Z,4.10
2019-03-11T05:44:23.749Z,5.12
2019-03-11T05:45:01.610Z,5.10
2019-03-11T05:45:39.209Z,5.12
2019-03-11T05:46:16.593Z,5.20
2019-03-11T05:46:54.301Z,5.15
2019-03-11T05:47:31.792Z,5.37
2019-03-11T05:48:09.341Z,4.72
2019-03-11T05:48:46.832Z,4.90
2019-03-11T05:49:24.494Z,4.90
2019-03-11T05:50:02.273Z,5.15
2019-03-11T05:50:41.193Z,5.08
2019-03-11T05:51:18.757Z,5.15
2019-03-11T05:51:56.485Z,5.30
2019-03-11T05:52:33.537Z,5.00
2019-03-11T05:53:11.231Z,4.87
2019-03-11T05:53:48.930Z,4.58
2019-03-11T05:54:26.849Z,5.25
2019-03-11T05:55:04.809Z,5.58
2019-03-11T05:55:42.829Z,5.47
2019-03-11T05:56:20.804Z,5.40
2019-03-11T05:56:59.142Z,5.03
2019-03-11T05:57:36.633Z,5.50
2019-03-11T05:58:13.743Z,4.62
2019-03-11T05:58:51.657Z,5.15
2019-03-11T05:59:29.069Z,5.65
2019-03-11T06:00:08.411Z,4.87
2019-03-11T06:00:45.992Z,6.12
2019-03-11T06:01:23.811Z,7.55
2019-03-11T06:02:01.974Z,7.08
2019-03-11T06:02:39.759Z,8.25
2019-03-11T06:03:17.216Z,9.83
2019-03-11T06:03:54.924Z,10.00
2019-03-11T06:04:32.630Z,10.08
2019-03-11T06:05:10.191Z,11.60
2019-03-11T06:05:48.364Z,12.40
2019-03-11T06:06:26.045Z,12.43
2019-03-11T06:07:03.321Z,12.28
2019-03-11T06:07:42.609Z,12.03
2019-03-11T06:08:24.519Z,10.25
2019-03-11T06:09:02.241Z,10.95
2019-03-11T06:09:39.985Z,9.30
2019-03-11T06:10:17.500Z,7.62
2019-03-11T06:10:55.233Z,7.08
2019-03-11T06:11:32.979Z,7.87
2019-03-11T06:12:10.645Z,7.40
2019-03-11T06:12:48.847Z,7.45
2019-03-11T06:13:35.540Z,8.08
2019-03-11T06:14:05.233Z,7.72
2019-03-11T06:14:43.049Z,6.62
2019-03-11T06:15:20.525Z,6.58
2019-03-11T06:15:57.564Z,6.65
2019-03-11T06:16:35.329Z,6.15
2019-03-11T06:17:13.216Z,7.00
2019-03-11T06:17:51.155Z,6.85
2019-03-11T06:18:44.293Z,6.12
2019-03-11T06:19:21.323Z,5.90
2019-03-11T06:20:12.515Z,6.08
2019-03-11T06:20:56.637Z,6.03
2019-03-11T06:21:40.993Z,6.22
2019-03-11T06:22:21.853Z,5.92
2019-03-11T06:22:59.415Z,5.62
2019-03-11T06:23:37.116Z,5.78
2019-03-11T06:24:14.593Z,6.65
2019-03-11T06:24:52.199Z,6.40
2019-03-11T06:25:30.074Z,6.87
2019-03-11T06:26:07.554Z,6.97
2019-03-11T06:26:45.119Z,8.20
2019-03-11T06:27:22.507Z,7.30
2019-03-11T06:28:18.724Z,6.50
2019-03-11T06:28:56.428Z,5.87
2019-03-11T06:29:33.825Z,6.12
2019-03-11T06:30:11.872Z,6.25
2019-03-11T06:30:49.909Z,6.72
2019-03-11T06:31:27.265Z,7.15
2019-03-11T06:32:04.947Z,6.60
2019-03-11T06:32:43.169Z,6.70
2019-03-11T06:33:20.643Z,7.35
2019-03-11T06:33:58.530Z,7.05
2019-03-11T06:34:36.501Z,6.72
2019-03-11T06:35:13.516Z,6.87
2019-03-11T06:35:51.027Z,7.30
2019-03-11T06:36:30.607Z,6.80
2019-03-11T06:37:07.436Z,7.70
2019-03-11T06:37:45.608Z,7.53
2019-03-11T06:38:22.887Z,7.55
2019-03-11T06:39:05.701Z,7.35
2019-03-11T06:39:40.097Z,7.53
2019-03-11T06:40:17.758Z,7.60
2019-03-11T06:40:54.853Z,7.20
2019-03-11T06:41:32.557Z,7.45
2019-03-11T06:42:10.527Z,6.30
2019-03-11T06:42:47.689Z,8.25
2019-03-11T06:43:25.391Z,6.65
2019-03-11T06:44:02.183Z,7.97
2019-03-11T06:44:39.998Z,6.78
2019-03-11T06:45:17.437Z,7.67
2019-03-11T06:45:54.925Z,8.28
2019-03-11T06:46:32.726Z,7.37
2019-03-11T06:47:10.798Z,8.05
2019-03-11T06:47:48.439Z,8.05
2019-03-11T06:48:26.355Z,7.55
2019-03-11T06:49:04.309Z,7.58
2019-03-11T06:49:42.241Z,7.75
2019-03-11T06:50:19.687Z,7.22
2019-03-11T06:50:57.707Z,7.62
2019-03-11T06:51:35.495Z,7.25
2019-03-11T06:52:12.963Z,7.60
2019-03-11T06:53:09.957Z,8.00
2019-03-11T06:53:47.167Z,7.05
2019-03-11T06:54:24.829Z,6.58
2019-03-11T06:55:02.844Z,7.12
2019-03-11T06:55:40.510Z,6.75
2019-03-11T06:56:18.519Z,7.58
2019-03-11T06:56:56.177Z,7.33
2019-03-11T06:57:33.859Z,6.62
2019-03-11T06:58:11.758Z,6.83
2019-03-11T06:58:49.458Z,7.17
2019-03-11T06:59:27.451Z,7.70
2019-03-11T07:00:06.385Z,6.85
2019-03-11T07:00:44.084Z,7.28
2019-03-11T07:01:22.177Z,6.62
2019-03-11T07:01:59.939Z,6.30
2019-03-11T07:02:37.355Z,7.00
2019-03-11T07:03:14.776Z,5.65
2019-03-11T07:03:52.677Z,6.28
2019-03-11T07:04:30.738Z,6.08
2019-03-11T07:05:18.802Z,6.12
2019-03-11T07:05:47.570Z,5.62
2019-03-11T07:06:25.581Z,6.00
2019-03-11T07:07:02.945Z,5.95
2019-03-11T07:07:40.721Z,6.10
2019-03-11T07:08:18.731Z,6.03
2019-03-11T07:08:56.635Z,6.03
2019-03-11T07:09:33.952Z,6.75
2019-03-11T07:10:12.259Z,6.12
2019-03-11T07:10:49.636Z,6.40
2019-03-11T07:11:27.467Z,5.83
2019-03-11T07:12:04.984Z,5.30
2019-03-11T07:12:43.087Z,4.87
2019-03-11T07:13:20.845Z,5.37
2019-03-11T07:13:58.275Z,5.30
2019-03-11T07:14:36.283Z,5.58
2019-03-11T07:15:14.282Z,5.25
2019-03-11T07:15:52.461Z,4.72
2019-03-11T07:16:30.253Z,4.15
2019-03-11T07:17:08.193Z,4.25
2019-03-11T07:17:45.911Z,4.75
2019-03-11T07:18:23.356Z,4.55
2019-03-11T07:19:01.328Z,4.65
2019-03-11T07:19:39.136Z,4.28
2019-03-11T07:20:16.620Z,4.25
2019-03-11T07:20:54.019Z,4.58
2019-03-11T07:21:31.980Z,4.15
2019-03-11T07:22:09.048Z,4.50
2019-03-11T07:22:46.755Z,3.87
2019-03-11T07:23:24.516Z,4.03
2019-03-11T07:24:02.126Z,4.72
2019-03-11T07:24:39.579Z,4.15
2019-03-11T07:25:17.383Z,3.62
2019-03-11T07:25:54.753Z,4.15
2019-03-11T07:26:32.787Z,4.40
2019-03-11T07:27:10.468Z,4.03
2019-03-11T07:27:48.462Z,3.55
2019-03-11T07:28:26.283Z,4.35
2019-03-11T07:29:03.814Z,4.10
2019-03-11T07:29:41.571Z,3.98
2019-03-11T07:30:19.048Z,3.83
2019-03-11T07:30:56.103Z,3.70
2019-03-11T07:31:33.700Z,4.35
2019-03-11T07:32:11.519Z,4.15
2019-03-11T07:32:49.060Z,4.20
2019-03-11T07:33:31.603Z,3.75
2019-03-11T07:34:08.942Z,3.90
2019-03-11T07:34:46.975Z,3.80
2019-03-11T07:35:24.725Z,4.58
2019-03-11T07:36:02.713Z,3.90
2019-03-11T07:36:40.742Z,3.60
2019-03-11T07:37:18.557Z,4.08
2019-03-11T07:37:56.067Z,4.50
2019-03-11T07:38:33.453Z,3.90
2019-03-11T07:39:10.906Z,4.55
2019-03-11T07:39:49.024Z,3.90
2019-03-11T07:40:30.053Z,4.28
2019-03-11T07:41:05.344Z,4.10
2019-03-11T07:41:43.331Z,3.80
2019-03-11T07:42:21.002Z,3.25
2019-03-11T07:42:57.715Z,3.42
2019-03-11T07:43:35.464Z,3.35
2019-03-11T07:44:13.196Z,3.45
2019-03-11T07:44:50.702Z,3.60
2019-03-11T07:45:28.455Z,3.70
2019-03-11T07:46:06.141Z,3.60
2019-03-11T07:46:45.561Z,3.50
2019-03-11T07:47:23.506Z,3.47
2019-03-11T07:48:01.301Z,3.80
2019-03-11T07:48:39.314Z,2.85
2019-03-11T07:49:17.103Z,3.50
2019-03-11T07:49:55.204Z,3.70
2019-03-11T07:50:33.347Z,3.30
2019-03-11T07:51:11.165Z,3.30
2019-03-11T07:51:48.919Z,3.10
2019-03-11T07:52:26.619Z,4.05
2019-03-11T07:53:04.389Z,3.10
2019-03-11T07:53:42.393Z,3.67
2019-03-11T07:54:20.130Z,3.55
2019-03-11T07:54:58.249Z,3.50
2019-03-11T07:55:36.052Z,3.25
2019-03-11T07:56:13.602Z,3.60
2019-03-11T07:56:51.396Z,3.37
2019-03-11T07:57:28.804Z,4.05
2019-03-11T07:58:06.604Z,3.40
2019-03-11T07:58:44.138Z,3.30
2019-03-11T07:59:22.231Z,3.70
2019-03-11T08:00:00.376Z,3.90
2019-03-11T08:00:38.384Z,3.50
2019-03-11T08:01:16.196Z,3.30
2019-03-11T08:01:54.209Z,3.20
2019-03-11T08:02:31.952Z,3.45
2019-03-11T08:03:09.723Z,3.72
2019-03-11T08:03:47.315Z,3.58
2019-03-11T08:04:24.983Z,2.87
2019-03-11T08:05:02.800Z,3.77
2019-03-11T08:05:40.491Z,3.30
2019-03-11T08:06:19.118Z,3.10
2019-03-11T08:06:57.388Z,3.40
2019-03-11T08:07:35.008Z,3.50
2019-03-11T08:08:13.019Z,3.40
2019-03-11T08:08:50.786Z,3.05
2019-03-11T08:09:37.306Z,3.47
2019-03-11T08:10:08.962Z,3.27
2019-03-11T08:10:46.977Z,2.80
2019-03-11T08:11:24.552Z,2.92
2019-03-11T08:12:02.246Z,3.30
2019-03-11T08:12:40.493Z,3.02
2019-03-11T08:13:18.155Z,3.30
2019-03-11T08:13:55.181Z,3.10
2019-03-11T08:14:33.105Z,2.80
2019-03-11T08:15:12.824Z,2.50
2019-03-11T08:15:50.526Z,3.20
2019-03-11T08:16:27.964Z,3.27
2019-03-11T08:17:05.776Z,3.30
2019-03-11T08:17:43.879Z,2.75
2019-03-11T08:18:21.323Z,3.12
2019-03-11T08:18:59.034Z,2.67
2019-03-11T08:19:36.344Z,3.05
2019-03-11T08:20:14.275Z,2.95
2019-03-11T08:20:51.398Z,3.00
2019-03-11T08:21:29.143Z,3.17
2019-03-11T08:22:07.023Z,2.70
2019-03-11T08:22:44.965Z,2.40
2019-03-11T08:23:22.904Z,2.55
2019-03-11T08:24:00.599Z,2.85
2019-03-11T08:24:38.272Z,2.70
2019-03-11T08:25:16.589Z,2.52
2019-03-11T08:25:53.992Z,2.35
2019-03-11T08:26:31.412Z,2.70